Time;durP1;ratioP1;P1;durP2;ratioP2;P2;SDS_P1;SDS_P2;PMS_P1;PMS_P2;Temp;Humidity;BMP_temperature;BMP_pressure;BME280_temperature;BME280_humidity;BME280_pressure;Samples;Min_cycle;Max_cycle;Signal;HPM_P1;HPM_P2
2022/04/23 00:02:10;;;;;;;1.93;0.50;;;23.20;99.90;;;;;;5093044;28;20716;-69
2022/04/23 00:04:39;;;;;;;3.77;0.90;;;23.10;99.90;;;;;;5093154;28;20629;-69
2022/04/23 00:07:06;;;;;;;1.30;0.57;;;22.40;99.90;;;;;;5093145;28;20183;-69
2022/04/23 00:09:34;;;;;;;1.90;0.57;;;21.40;99.90;;;;;;5093158;28;20178;-69
2022/04/23 00:12:02;;;;;;;3.37;0.80;;;21.10;99.90;;;;;;5093224;28;20174;-69
2022/04/23 00:14:29;;;;;;;5.43;0.90;;;21.20;99.90;;;;;;5092882;28;20186;-68
2022/04/23 00:17:00;;;;;;;2.53;0.60;;;21.80;99.90;;;;;;5093199;28;20175;-69
2022/04/23 00:19:27;;;;;;;3.83;0.80;;;22.00;99.90;;;;;;5093078;28;20644;-69
2022/04/23 00:21:55;;;;;;;5.70;0.97;;;22.90;99.90;;;;;;5093039;28;20176;-69
2022/04/23 00:24:22;;;;;;;2.57;0.50;;;23.60;99.90;;;;;;5092935;28;20653;-70
2022/04/23 00:26:49;;;;;;;2.53;0.80;;;23.70;99.90;;;;;;5093009;28;20175;-69
2022/04/23 00:29:17;;;;;;;4.80;0.60;;;23.50;99.90;;;;;;5092969;28;20175;-69
2022/04/23 00:31:44;;;;;;;5.20;0.63;;;24.30;99.90;;;;;;5093059;28;20194;-69
2022/04/23 00:34:12;;;;;;;2.40;0.50;;;24.40;99.90;;;;;;5093034;28;20178;-69
2022/04/23 00:36:39;;;;;;;4.93;0.70;;;23.60;99.90;;;;;;5092863;28;20743;-69
2022/04/23 00:39:06;;;;;;;2.93;0.50;;;23.70;99.90;;;;;;5091691;28;20536;-69
2022/04/23 00:41:51;;;;;;;1.27;0.47;;;24.30;99.90;;;;;;5093007;28;20171;-70
2022/04/23 00:44:19;;;;;;;2.10;0.57;;;24.90;99.90;;;;;;5092691;28;20218;-69
2022/04/23 00:46:47;;;;;;;1.57;0.53;;;24.90;99.90;;;;;;5092786;28;20536;-69
2022/04/23 00:49:14;;;;;;;4.20;0.70;;;24.00;99.90;;;;;;5092596;28;20179;-69
2022/04/23 00:51:42;;;;;;;5.13;0.67;;;23.70;99.90;;;;;;5092897;28;20171;-69
2022/04/23 00:54:10;;;;;;;4.00;0.67;;;23.60;99.90;;;;;;5092550;28;20180;-69
2022/04/23 00:56:39;;;;;;;4.37;0.60;;;23.20;99.90;;;;;;5092514;28;20264;-69
2022/04/23 00:59:14;;;;;;;0.87;0.43;;;23.00;99.90;;;;;;5092499;28;20183;-68
2022/04/23 01:01:43;;;;;;;1.57;0.40;;;22.30;99.90;;;;;;5093725;28;20202;-68
2022/04/23 01:04:12;;;;;;;2.93;0.60;;;22.10;99.90;;;;;;5096382;28;20199;-68
2022/04/23 01:06:40;;;;;;;2.97;0.60;;;22.00;99.90;;;;;;5096292;28;20167;-69
2022/04/23 01:09:09;;;;;;;1.30;0.53;;;22.70;99.90;;;;;;5096174;28;20182;-69
2022/04/23 01:11:39;;;;;;;1.43;0.43;;;23.80;99.90;;;;;;5096430;28;20183;-69
2022/04/23 01:14:07;;;;;;;3.40;0.60;;;23.70;99.90;;;;;;5096172;28;20240;-69
2022/04/23 01:16:34;;;;;;;1.17;0.60;;;23.30;99.90;;;;;;5096099;28;20230;-68
2022/04/23 01:19:02;;;;;;;2.37;0.50;;;23.10;99.90;;;;;;5096275;28;20194;-69
2022/04/23 01:21:30;;;;;;;1.87;0.47;;;23.90;99.90;;;;;;5096130;28;20269;-69
2022/04/23 01:23:58;;;;;;;4.70;0.87;;;24.60;99.90;;;;;;5095947;28;20179;-69
2022/04/23 01:26:28;;;;;;;1.20;0.60;;;24.80;99.90;;;;;;5096263;28;20175;-69
2022/04/23 01:28:57;;;;;;;3.33;0.83;;;25.50;99.90;;;;;;5095894;28;20536;-68
2022/04/23 01:31:25;;;;;;;1.40;0.60;;;25.20;99.90;;;;;;5095857;28;20195;-68
2022/04/23 01:33:52;;;;;;;2.07;0.50;;;23.70;99.90;;;;;;5094533;28;20181;-68
2022/04/23 01:36:20;;;;;;;1.77;0.60;;;23.20;99.90;;;;;;5095903;28;20223;-68
2022/04/23 01:38:47;;;;;;;2.00;0.60;;;22.90;99.90;;;;;;5095905;28;20174;-68
2022/04/23 01:41:15;;;;;;;2.83;0.40;;;22.70;99.90;;;;;;5096024;28;20173;-68
2022/04/23 01:43:42;;;;;;;1.63;0.50;;;22.70;99.90;;;;;;5095607;28;20226;-69
2022/04/23 01:46:09;;;;;;;6.00;0.80;;;23.10;99.90;;;;;;5095902;28;20175;-68
2022/04/23 01:48:37;;;;;;;0.67;0.40;;;22.70;99.90;;;;;;5095537;28;20232;-69
2022/04/23 01:51:04;;;;;;;3.27;0.60;;;22.40;99.90;;;;;;5095763;28;20227;-69
2022/04/23 01:53:32;;;;;;;3.03;0.83;;;22.20;99.90;;;;;;5095470;28;20174;-69
2022/04/23 01:55:59;;;;;;;1.73;0.60;;;22.10;99.90;;;;;;5095683;28;20216;-69
2022/04/23 01:58:26;;;;;;;2.47;0.50;;;21.90;99.90;;;;;;5095743;28;20178;-69
2022/04/23 02:00:54;;;;;;;1.63;0.60;;;21.80;99.90;;;;;;5095531;28;20171;-69
2022/04/23 02:03:22;;;;;;;3.43;0.60;;;22.50;99.90;;;;;;5095441;28;20697;-69
2022/04/23 02:05:50;;;;;;;1.60;0.40;;;24.00;99.90;;;;;;5095371;28;20265;-69
2022/04/23 02:08:18;;;;;;;5.03;0.80;;;25.30;99.90;;;;;;5095350;28;20167;-69
2022/04/23 02:10:47;;;;;;;2.43;0.80;;;26.00;99.90;;;;;;5095168;28;20237;-68
2022/04/23 02:13:15;;;;;;;3.27;0.60;;;25.00;99.90;;;;;;5095106;28;20175;-69
2022/04/23 02:15:42;;;;;;;2.87;0.57;;;24.50;99.90;;;;;;5094896;28;20290;-69
2022/04/23 02:18:10;;;;;;;1.73;0.63;;;25.60;99.90;;;;;;5095239;28;20227;-69
2022/04/23 02:20:38;;;;;;;2.30;0.50;;;26.10;99.90;;;;;;5095071;28;20183;-70
2022/04/23 02:23:06;;;;;;;2.27;0.67;;;26.30;99.90;;;;;;5095040;28;20202;-69
2022/04/23 02:25:36;;;;;;;3.10;0.80;;;26.70;99.90;;;;;;5094968;28;20607;-69
2022/04/23 02:28:05;;;;;;;1.73;0.70;;;27.30;99.90;;;;;;5093804;28;20187;-69
2022/04/23 02:30:32;;;;;;;2.10;0.63;;;27.60;99.90;;;;;;5094781;28;20179;-69
2022/04/23 02:33:00;;;;;;;1.23;0.57;;;27.50;99.90;;;;;;5094886;28;20359;-70
2022/04/23 02:35:28;;;;;;;4.90;0.80;;;27.30;99.90;;;;;;5094622;28;20230;-70
2022/04/23 02:37:57;;;;;;;3.27;0.57;;;27.30;99.90;;;;;;5094974;28;20221;-69
2022/04/23 02:40:25;;;;;;;2.60;0.40;;;27.70;99.90;;;;;;5094648;28;20210;-69
2022/04/23 02:42:53;;;;;;;0.60;0.40;;;27.80;99.90;;;;;;5094548;28;20179;-69
2022/04/23 02:45:20;;;;;;;0.67;0.47;;;27.90;99.90;;;;;;5094744;28;20183;-69
2022/04/23 02:47:48;;;;;;;2.10;0.80;;;26.70;99.90;;;;;;5094554;28;20171;-69
2022/04/23 02:50:25;;;;;;;1.60;0.40;;;26.20;99.90;;;;;;5093167;28;20193;-69
2022/04/23 02:52:53;;;;;;;1.17;0.40;;;26.10;99.90;;;;;;5094572;28;20182;-68
2022/04/23 02:55:20;;;;;;;1.67;0.60;;;26.50;99.90;;;;;;5094287;28;20620;-69
2022/04/23 02:57:48;;;;;;;7.00;0.70;;;26.00;99.90;;;;;;5094488;28;20586;-68
2022/04/23 03:00:16;;;;;;;1.50;0.47;;;24.90;99.90;;;;;;5093168;28;20654;-68
2022/04/23 03:02:44;;;;;;;0.90;0.70;;;24.20;99.90;;;;;;5094315;28;20175;-69
2022/04/23 03:05:14;;;;;;;1.47;0.53;;;23.80;99.90;;;;;;5094357;28;20188;-69
2022/04/23 03:07:42;;;;;;;1.20;0.50;;;23.50;99.90;;;;;;5093855;28;20554;-68
2022/04/23 03:10:12;;;;;;;2.27;0.60;;;24.40;99.90;;;;;;5094335;28;20176;-68
2022/04/23 03:12:40;;;;;;;4.03;0.60;;;25.40;99.90;;;;;;5093875;28;20183;-69
2022/04/23 03:15:09;;;;;;;3.80;0.80;;;26.20;99.90;;;;;;5093907;28;20699;-68
2022/04/23 03:17:37;;;;;;;3.13;0.50;;;27.20;99.90;;;;;;5093958;28;20176;-69
2022/04/23 03:20:07;;;;;;;3.03;0.30;;;27.30;99.90;;;;;;5092800;28;20720;-68
2022/04/23 03:22:36;;;;;;;6.30;0.60;;;26.80;99.90;;;;;;5093833;28;20179;-69
2022/04/23 03:25:03;;;;;;;1.40;0.73;;;26.50;99.90;;;;;;5093421;28;20645;-69
2022/04/23 03:27:31;;;;;;;1.20;0.47;;;26.70;99.90;;;;;;5093846;28;20562;-69
2022/04/23 03:29:59;;;;;;;1.93;0.50;;;27.00;99.90;;;;;;5093762;28;20238;-69
2022/04/23 03:32:27;;;;;;;2.20;0.40;;;27.40;99.90;;;;;;5093483;28;20218;-69
2022/04/23 03:34:55;;;;;;;1.50;0.40;;;27.80;99.90;;;;;;5093514;28;20599;-69
2022/04/23 03:37:24;;;;;;;1.43;0.47;;;26.80;99.90;;;;;;5093522;28;20201;-68
2022/04/23 03:39:51;;;;;;;3.40;0.40;;;27.00;99.90;;;;;;5093961;28;20178;-68
2022/04/23 03:42:19;;;;;;;2.80;0.53;;;27.60;99.90;;;;;;5093616;28;20187;-69
2022/04/23 03:44:46;;;;;;;2.20;0.50;;;27.10;99.90;;;;;;5093799;28;20163;-69
2022/04/23 03:47:15;;;;;;;3.73;0.70;;;26.70;99.90;;;;;;5093390;28;20246;-68
2022/04/23 03:49:43;;;;;;;0.80;0.30;;;27.10;99.90;;;;;;5093416;28;20536;-69
2022/04/23 03:52:10;;;;;;;3.20;0.53;;;27.40;99.90;;;;;;5093408;28;20187;-69
2022/04/23 03:54:38;;;;;;;1.20;0.60;;;27.10;99.90;;;;;;5093139;28;20262;-69
2022/04/23 03:57:06;;;;;;;0.90;0.30;;;27.40;99.90;;;;;;5093474;28;20171;-68
2022/04/23 03:59:35;;;;;;;1.30;0.40;;;27.40;99.90;;;;;;5093443;28;20182;-69
2022/04/23 04:02:04;;;;;;;2.90;0.60;;;27.70;99.90;;;;;;5093245;28;20582;-69
2022/04/23 04:04:33;;;;;;;1.33;0.53;;;28.10;99.90;;;;;;5093269;28;20171;-68
2022/04/23 04:07:00;;;;;;;1.90;0.70;;;28.00;99.90;;;;;;5093339;28;20534;-68
2022/04/23 04:09:29;;;;;;;1.13;0.40;;;28.30;99.90;;;;;;5093277;28;20178;-69
2022/04/23 04:12:03;;;;;;;2.70;0.50;;;27.60;99.90;;;;;;5093000;28;20379;-69
2022/04/23 04:14:34;;;;;;;1.03;0.33;;;27.40;99.90;;;;;;5092869;28;20945;-69
2022/04/23 04:17:04;;;;;;;1.70;0.23;;;26.30;99.90;;;;;;5093470;28;20187;-68
2022/04/23 04:19:34;;;;;;;1.50;0.33;;;25.40;99.90;;;;;;5092982;28;20175;-69
2022/04/23 04:22:02;;;;;;;2.30;0.30;;;24.80;99.90;;;;;;5093289;28;20179;-68
2022/04/23 04:24:30;;;;;;;2.73;0.43;;;24.20;99.90;;;;;;5093163;28;20526;-68
2022/04/23 04:27:00;;;;;;;1.63;0.40;;;23.70;99.90;;;;;;5093032;28;20581;-69
2022/04/23 04:29:28;;;;;;;2.90;1.00;;;23.30;99.90;;;;;;5092850;28;20175;-68
2022/04/23 04:31:55;;;;;;;1.60;0.50;;;23.50;99.90;;;;;;5093204;28;20522;-69
2022/04/23 04:34:28;;;;;;;3.80;0.60;;;24.20;99.90;;;;;;5092839;28;20261;-69
2022/04/23 04:37:10;;;;;;;4.43;0.77;;;24.80;99.90;;;;;;5094832;28;20186;-68
2022/04/23 04:39:42;;;;;;;1.07;0.60;;;25.40;99.90;;;;;;5096978;28;20167;-69
2022/04/23 04:42:11;;;;;;;2.70;0.60;;;25.50;99.90;;;;;;5095819;28;20217;-69
2022/04/23 04:44:39;;;;;;;3.73;0.60;;;25.70;99.90;;;;;;5096952;28;20706;-69
2022/04/23 04:47:07;;;;;;;0.83;0.60;;;25.70;99.90;;;;;;5097165;28;20191;-69
2022/04/23 04:49:34;;;;;;;2.33;0.50;;;25.20;99.90;;;;;;5096607;28;20167;-67
2022/04/23 04:52:01;;;;;;;2.87;0.87;;;24.50;99.90;;;;;;5096927;28;20176;-69
2022/04/23 04:54:29;;;;;;;1.23;0.60;;;23.80;99.90;;;;;;5096617;28;20262;-69
2022/04/23 04:56:57;;;;;;;2.33;0.47;;;23.30;99.90;;;;;;5096626;28;20183;-69
2022/04/23 04:59:24;;;;;;;1.03;0.43;;;22.90;99.90;;;;;;5095485;28;20210;-69
2022/04/23 05:01:53;;;;;;;1.70;0.77;;;22.60;99.90;;;;;;5096840;28;20225;-69
2022/04/23 05:04:21;;;;;;;2.93;0.70;;;22.50;99.90;;;;;;5096508;28;20299;-69
2022/04/23 05:06:48;;;;;;;3.93;0.70;;;22.40;99.90;;;;;;5096551;28;20262;-69
2022/04/23 05:09:16;;;;;;;2.63;0.70;;;22.10;99.90;;;;;;5096556;28;20247;-69
2022/04/23 05:11:44;;;;;;;3.77;0.80;;;22.10;99.90;;;;;;5096721;28;20173;-69
2022/04/23 05:14:11;;;;;;;2.23;1.13;;;21.70;99.90;;;;;;5096360;28;20641;-69
2022/04/23 05:16:38;;;;;;;4.17;1.17;;;21.60;99.90;;;;;;5096451;28;20248;-69
2022/04/23 05:19:06;;;;;;;1.57;1.00;;;21.60;99.90;;;;;;5096206;28;20171;-69
2022/04/23 05:21:33;;;;;;;3.37;1.00;;;21.50;99.90;;;;;;5096395;28;20175;-69
2022/04/23 05:24:00;;;;;;;2.07;0.80;;;21.50;99.90;;;;;;5096110;28;20243;-69
2022/04/23 05:26:28;;;;;;;4.40;0.80;;;21.40;99.90;;;;;;5096274;28;20179;-69
2022/04/23 05:28:55;;;;;;;3.73;0.60;;;21.50;99.90;;;;;;5096025;28;20580;-69
2022/04/23 05:31:23;;;;;;;1.27;0.53;;;22.00;99.90;;;;;;5095923;28;20228;-69
2022/04/23 05:33:51;;;;;;;1.43;0.60;;;22.30;99.90;;;;;;5095983;28;20183;-69
2022/04/23 05:36:18;;;;;;;2.50;0.70;;;22.40;99.90;;;;;;5095929;28;20284;-69
2022/04/23 05:38:46;;;;;;;2.50;0.90;;;22.60;99.90;;;;;;5095855;28;20266;-67
2022/04/23 05:41:13;;;;;;;4.70;0.80;;;22.60;99.90;;;;;;5095736;28;20191;-68
2022/04/23 05:43:41;;;;;;;2.60;0.70;;;22.70;99.90;;;;;;5095782;28;20179;-69
2022/04/23 05:46:09;;;;;;;1.73;0.57;;;22.80;99.90;;;;;;5095803;28;20211;-68
2022/04/23 05:48:39;;;;;;;4.20;0.57;;;23.00;99.90;;;;;;5095219;28;20175;-68
2022/04/23 05:51:07;;;;;;;1.40;0.60;;;23.30;99.90;;;;;;5096095;28;20167;-68
2022/04/23 05:53:34;;;;;;;2.03;0.60;;;23.40;99.90;;;;;;5095598;28;20534;-68
2022/04/23 05:56:01;;;;;;;4.00;0.87;;;23.50;99.90;;;;;;5095920;28;20199;-68
2022/04/23 05:58:29;;;;;;;2.97;0.60;;;23.10;99.90;;;;;;5095847;28;20178;-68
2022/04/23 06:00:56;;;;;;;4.23;0.63;;;22.70;99.90;;;;;;5095605;28;20171;-68
2022/04/23 06:03:23;;;;;;;1.50;0.57;;;22.50;99.90;;;;;;5095509;28;20513;-68
2022/04/23 06:05:51;;;;;;;3.47;1.40;;;22.20;99.90;;;;;;5093997;28;20607;-68
2022/04/23 06:08:18;;;;;;;4.60;1.00;;;21.90;99.90;;;;;;5095424;28;20171;-68
2022/04/23 06:10:45;;;;;;;3.07;0.80;;;21.70;99.90;;;;;;5095179;28;20675;-68
2022/04/23 06:13:13;;;;;;;2.43;0.80;;;21.40;99.90;;;;;;5095367;28;20365;-68
2022/04/23 06:15:40;;;;;;;2.87;0.80;;;21.30;99.90;;;;;;5094945;28;20270;-68
2022/04/23 06:18:08;;;;;;;2.33;0.80;;;21.20;99.90;;;;;;5093910;28;20182;-68
2022/04/23 06:20:35;;;;;;;2.67;0.70;;;21.10;99.90;;;;;;5095160;28;20255;-68
2022/04/23 06:23:04;;;;;;;7.33;1.10;;;21.00;99.90;;;;;;5095215;28;20174;-69
2022/04/23 06:25:32;;;;;;;1.70;0.57;;;20.90;99.90;;;;;;5095061;28;20172;-68
2022/04/23 06:28:00;;;;;;;4.70;0.77;;;20.90;99.90;;;;;;5094764;28;20174;-69
2022/04/23 06:30:27;;;;;;;2.00;0.77;;;21.00;99.90;;;;;;5094928;28;20185;-68
2022/04/23 06:32:54;;;;;;;5.30;0.80;;;20.90;99.90;;;;;;5094776;28;20167;-68
2022/04/23 06:35:22;;;;;;;5.50;0.77;;;20.80;99.90;;;;;;5094689;28;20189;-68
2022/04/23 06:37:50;;;;;;;2.57;0.60;;;20.80;99.90;;;;;;5094709;28;20553;-69
2022/04/23 06:40:17;;;;;;;4.33;0.63;;;20.80;99.90;;;;;;5094770;28;20172;-69
2022/04/23 06:42:44;;;;;;;3.27;0.60;;;20.60;99.90;;;;;;5093175;28;20582;-68
2022/04/23 06:45:12;;;;;;;3.13;0.70;;;20.80;99.90;;;;;;5094818;28;20191;-69
2022/04/23 06:47:40;;;;;;;1.63;0.50;;;20.80;99.90;;;;;;5094549;28;20217;-69
2022/04/23 06:50:08;;;;;;;1.70;0.50;;;20.90;99.90;;;;;;5094822;28;20181;-69
2022/04/23 06:52:35;;;;;;;3.80;1.30;;;20.80;99.90;;;;;;5094992;28;20175;-69
2022/04/23 06:55:05;;;;;;;2.77;0.60;;;20.70;99.90;;;;;;5093084;28;20260;-69
2022/04/23 06:57:32;;;;;;;2.03;0.63;;;20.60;99.90;;;;;;5092966;28;20520;-69
2022/04/23 07:00:03;;;;;;;5.07;0.70;;;20.40;99.90;;;;;;5093460;28;20223;-69
2022/04/23 07:02:30;;;;;;;0.83;0.60;;;20.20;99.90;;;;;;5094186;28;20167;-69
2022/04/23 07:04:58;;;;;;;2.20;0.93;;;20.10;99.90;;;;;;5094397;28;20195;-69
2022/04/23 07:07:25;;;;;;;3.27;0.80;;;19.90;99.90;;;;;;5094092;28;20179;-69
2022/04/23 07:09:52;;;;;;;3.40;0.80;;;19.80;99.90;;;;;;5094053;28;20177;-69
2022/04/23 07:12:20;;;;;;;5.13;0.90;;;19.70;99.90;;;;;;5094010;28;20179;-68
2022/04/23 07:14:47;;;;;;;6.70;1.03;;;19.60;99.90;;;;;;5093927;28;20673;-68
2022/04/23 07:17:14;;;;;;;1.67;0.70;;;19.60;99.90;;;;;;5094083;28;20547;-68
2022/04/23 07:19:42;;;;;;;1.90;0.70;;;19.40;99.90;;;;;;5093946;28;20176;-68
2022/04/23 07:22:09;;;;;;;2.17;0.70;;;19.30;99.90;;;;;;5094043;28;20180;-68
2022/04/23 07:24:37;;;;;;;3.13;1.10;;;19.30;99.90;;;;;;5094220;28;20175;-68
2022/04/23 07:27:04;;;;;;;3.97;0.90;;;19.20;99.90;;;;;;5094046;28;20181;-68
2022/04/23 07:29:32;;;;;;;1.40;0.70;;;19.10;99.90;;;;;;5092703;28;20639;-68
2022/04/23 07:31:59;;;;;;;2.67;1.00;;;19.10;99.90;;;;;;5093994;28;20174;-67
2022/04/23 07:37:31;;;;;;;3.03;0.93;;;19.00;99.90;;;;;;5094000;28;20190;-68
2022/04/23 07:40:10;;;;;;;3.57;0.83;;;18.90;99.90;;;;;;5093724;28;20269;-68
2022/04/23 07:42:37;;;;;;;4.00;1.00;;;18.80;99.90;;;;;;5093625;28;20180;-68
2022/04/23 07:45:06;;;;;;;5.23;1.00;;;18.80;99.90;;;;;;5093852;28;20163;-68
2022/04/23 07:47:33;;;;;;;4.17;0.90;;;18.60;99.90;;;;;;5093934;28;20628;-68
2022/04/23 07:50:01;;;;;;;4.10;1.20;;;18.50;99.90;;;;;;5093682;28;20572;-69
2022/04/23 07:52:28;;;;;;;4.77;1.00;;;18.50;99.90;;;;;;5093787;28;20180;-68
2022/04/23 07:54:56;;;;;;;7.13;1.40;;;18.50;99.90;;;;;;5093653;28;20206;-69
2022/04/23 07:57:24;;;;;;;4.43;1.23;;;18.40;99.90;;;;;;5093522;28;20174;-68
2022/04/23 07:59:51;;;;;;;6.07;1.10;;;18.30;99.90;;;;;;5091921;28;20187;-68
2022/04/23 08:02:20;;;;;;;2.20;0.90;;;18.20;99.90;;;;;;5093440;28;20233;-69
2022/04/23 08:04:47;;;;;;;3.17;0.83;;;18.10;99.90;;;;;;5093448;28;20239;-69
2022/04/23 08:07:15;;;;;;;4.83;0.87;;;18.00;99.90;;;;;;5093443;28;20629;-69
2022/04/23 08:09:42;;;;;;;2.57;1.20;;;18.00;99.90;;;;;;5093103;28;20190;-69
2022/04/23 08:12:10;;;;;;;3.93;1.40;;;17.90;99.90;;;;;;5093013;28;20673;-69
2022/04/23 08:14:38;;;;;;;5.13;1.87;;;17.80;99.90;;;;;;5092900;28;20251;-68
2022/04/23 08:17:05;;;;;;;4.83;1.70;;;17.80;99.90;;;;;;5093301;28;20191;-69
2022/04/23 08:19:33;;;;;;;6.23;2.40;;;17.80;99.90;;;;;;5093401;28;20259;-68
2022/04/23 08:22:00;;;;;;;3.80;2.23;;;17.70;99.90;;;;;;5093222;28;20216;-68
2022/04/23 08:24:30;;;;;;;4.97;2.73;;;17.70;99.90;;;;;;5093225;28;20239;-68
2022/04/23 08:26:58;;;;;;;5.60;2.73;;;17.60;99.90;;;;;;5094880;28;20177;-69
2022/04/23 08:32:10;;;;;;;5.00;2.50;;;17.60;99.90;;;;;;5089603;28;20645;-68
2022/04/23 08:34:38;;;;;;;4.73;2.73;;;17.50;99.90;;;;;;5092501;28;20658;-68
2022/04/23 08:37:05;;;;;;;8.23;2.27;;;17.50;99.90;;;;;;5093074;28;20208;-68
2022/04/23 08:39:32;;;;;;;6.13;2.07;;;17.40;99.90;;;;;;5092359;28;20656;-68
2022/04/23 08:42:02;;;;;;;3.27;1.80;;;17.40;99.90;;;;;;5092704;28;20175;-68
2022/04/23 08:44:29;;;;;;;4.73;2.20;;;17.30;99.90;;;;;;5091879;28;21632;-68
2022/04/23 08:46:57;;;;;;;6.23;2.90;;;17.30;99.90;;;;;;5089939;28;20175;-68
2022/04/23 08:49:35;;;;;;;5.47;2.07;;;17.30;99.90;;;;;;5092224;28;20287;-68
2022/04/23 08:52:26;;;;;;;5.23;2.40;;;17.30;99.90;;;;;;5092936;28;20171;-67
2022/04/23 08:54:56;;;;;;;4.77;2.23;;;17.20;99.90;;;;;;5089372;28;20172;-67
2022/04/23 08:57:24;;;;;;;4.97;2.87;;;17.20;99.90;;;;;;5092124;28;20171;-68
2022/04/23 08:59:56;;;;;;;4.63;2.07;;;17.10;99.90;;;;;;5091885;28;20183;-67
2022/04/23 09:02:26;;;;;;;4.97;2.37;;;17.10;99.90;;;;;;5089743;28;20584;-68
2022/04/23 09:04:54;;;;;;;6.17;2.63;;;17.00;99.90;;;;;;5091894;28;20648;-67
2022/04/23 09:07:27;;;;;;;3.70;2.40;;;16.90;99.90;;;;;;5079241;28;20187;-67
2022/04/23 09:09:56;;;;;;;4.80;2.30;;;16.80;99.90;;;;;;5091991;28;20333;-67
2022/04/23 09:12:26;;;;;;;4.90;2.23;;;16.70;99.90;;;;;;5092159;28;20179;-67
2022/04/23 09:15:04;;;;;;;8.13;2.33;;;16.70;99.90;;;;;;5091970;28;20230;-67
2022/04/23 09:25:51;;;;;;;5.40;3.00;;;16.50;99.90;;;;;;5096279;28;20615;-69
2022/04/23 09:28:29;;;;;;;6.40;2.63;;;16.50;99.90;;;;;;5095634;28;20183;-69
2022/04/23 09:30:59;;;;;;;5.27;2.57;;;16.40;99.90;;;;;;5094993;28;20236;-69
2022/04/23 09:33:49;;;;;;;3.90;2.50;;;16.40;99.90;;;;;;5095960;28;20222;-69
2022/04/23 09:36:16;;;;;;;7.23;3.17;;;16.30;99.90;;;;;;5096091;28;20219;-69
2022/04/23 09:38:43;;;;;;;8.23;3.53;;;16.20;99.90;;;;;;5099276;28;20178;-69
2022/04/23 09:41:17;;;;;;;7.87;4.30;;;16.30;99.90;;;;;;5095934;28;20640;-69
2022/04/23 09:43:46;;;;;;;8.23;4.50;;;16.30;99.90;;;;;;5095898;28;20536;-69
2022/04/23 09:46:14;;;;;;;8.47;3.73;;;16.30;99.90;;;;;;5095576;28;20187;-68
2022/04/23 09:48:45;;;;;;;4.83;3.17;;;16.30;99.90;;;;;;5094852;28;20187;-68
2022/04/23 09:51:24;;;;;;;11.20;3.90;;;16.20;99.90;;;;;;5093587;28;20214;-69
2022/04/23 09:53:53;;;;;;;6.77;3.53;;;16.10;99.90;;;;;;5094934;28;21084;-69
2022/04/23 09:56:25;;;;;;;8.43;3.93;;;16.10;99.90;;;;;;5095655;28;20313;-68
2022/04/23 09:58:54;;;;;;;10.13;3.43;;;16.10;99.90;;;;;;5095418;28;20221;-68
2022/04/23 10:01:23;;;;;;;8.43;4.10;;;16.00;99.90;;;;;;5095379;28;20183;-69
2022/04/23 10:03:54;;;;;;;6.20;3.57;;;15.90;99.90;;;;;;5095464;28;20207;-69
2022/04/23 10:06:23;;;;;;;6.30;3.10;;;15.90;99.90;;;;;;5095762;28;20207;-68
2022/04/23 10:08:58;;;;;;;6.77;3.50;;;15.80;99.90;;;;;;5094951;28;20550;-68
2022/04/23 10:11:27;;;;;;;10.23;3.70;;;15.80;99.90;;;;;;5093509;28;20189;-68
2022/04/23 10:14:04;;;;;;;6.80;3.43;;;15.80;99.90;;;;;;5095328;28;20172;-69
2022/04/23 10:16:32;;;;;;;5.50;3.20;;;15.70;99.90;;;;;;5094933;28;20236;-68
2022/04/23 10:19:01;;;;;;;8.20;3.80;;;15.70;99.90;;;;;;5094696;28;20183;-67
2022/04/23 10:21:35;;;;;;;6.67;4.07;;;15.70;99.90;;;;;;5094534;28;20235;-67
2022/04/23 10:24:17;;;;;;;7.20;4.10;;;15.70;99.90;;;;;;5095421;28;20180;-68
2022/04/23 10:26:53;;;;;;;6.47;3.97;;;15.70;99.90;;;;;;5094850;28;20179;-67
2022/04/23 10:29:23;;;;;;;6.00;3.60;;;15.60;99.90;;;;;;5094596;28;20175;-67
2022/04/23 10:32:17;;;;;;;5.27;3.57;;;15.60;99.90;;;;;;5094894;28;20538;-67
2022/04/23 10:34:45;;;;;;;7.60;4.00;;;15.50;99.90;;;;;;5095029;28;20176;-67
2022/04/23 10:37:27;;;;;;;5.73;3.70;;;15.50;99.90;;;;;;5094807;28;20194;-68
2022/04/23 10:39:54;;;;;;;9.83;3.87;;;15.50;99.90;;;;;;5094668;28;20183;-66
2022/04/23 10:42:26;;;;;;;7.17;3.97;;;15.50;99.90;;;;;;5094706;28;20175;-67
2022/04/23 10:44:56;;;;;;;8.77;3.80;;;15.40;99.90;;;;;;5094858;28;20227;-67
2022/04/23 10:47:34;;;;;;;9.03;4.30;;;15.30;99.90;;;;;;5093655;28;20175;-68
2022/04/23 10:50:23;;;;;;;8.33;4.03;;;15.30;99.90;;;;;;5074895;28;20179;-67
2022/04/23 10:52:55;;;;;;;6.47;3.73;;;15.30;99.90;;;;;;5074557;28;20299;-67
2022/04/23 10:55:23;;;;;;;6.93;3.67;;;15.30;99.90;;;;;;5074388;28;20234;-68
2022/04/23 10:57:55;;;;;;;5.27;3.30;;;15.20;99.90;;;;;;5089476;28;20183;-67
2022/04/23 11:00:30;;;;;;;6.70;3.40;;;15.20;99.90;;;;;;5094292;28;20183;-67
2022/04/23 11:03:06;;;;;;;8.20;4.07;;;15.20;99.90;;;;;;5094479;28;20545;-67
2022/04/23 11:14:44;;;;;;;6.67;4.10;;;15.00;99.90;;;;;;5093877;28;20216;-68
2022/04/23 11:17:31;;;;;;;8.00;4.13;;;15.00;99.90;;;;;;5094357;28;20279;-68
2022/04/23 11:19:59;;;;;;;8.60;3.97;;;15.00;99.90;;;;;;5092832;28;20183;-67
2022/04/23 11:22:27;;;;;;;8.20;4.50;;;15.00;99.90;;;;;;5094112;28;20287;-68
2022/04/23 11:24:55;;;;;;;11.63;4.03;;;14.90;99.90;;;;;;5093991;28;20172;-68
2022/04/23 11:27:36;;;;;;;13.10;4.47;;;14.90;99.90;;;;;;5094202;28;20176;-68
2022/04/23 11:30:05;;;;;;;6.57;4.17;;;15.00;99.90;;;;;;5093730;28;20178;-67
2022/04/23 11:32:36;;;;;;;8.33;3.83;;;15.00;99.90;;;;;;5093883;28;20219;-69
2022/04/23 11:35:06;;;;;;;7.17;3.40;;;14.90;99.90;;;;;;5093869;28;20194;-68
2022/04/23 11:37:42;;;;;;;10.70;4.40;;;14.90;99.90;;;;;;5093858;28;20292;-68
2022/04/23 11:40:16;;;;;;;5.70;3.93;;;14.90;99.90;;;;;;5093434;28;20249;-68
2022/04/23 11:42:45;;;;;;;9.70;3.70;;;14.90;99.90;;;;;;5093158;28;20186;-68
2022/04/23 11:45:14;;;;;;;7.20;3.40;;;14.80;99.90;;;;;;5091706;28;20190;-68
2022/04/23 11:47:42;;;;;;;8.60;3.83;;;14.80;99.90;;;;;;5093340;28;20236;-68
2022/04/23 11:50:17;;;;;;;5.23;3.47;;;14.70;99.90;;;;;;5093639;28;20217;-68
2022/04/23 11:52:55;;;;;;;8.07;3.70;;;14.70;99.90;;;;;;5093204;28;20739;-68
2022/04/23 11:55:25;;;;;;;5.87;3.40;;;14.60;99.90;;;;;;5093330;28;20293;-68
2022/04/23 11:58:00;;;;;;;7.13;3.47;;;14.70;99.90;;;;;;5093649;28;20171;-68
2022/04/23 12:00:28;;;;;;;7.50;3.73;;;14.60;99.90;;;;;;5093555;28;20282;-68
2022/04/23 12:02:56;;;;;;;7.33;3.80;;;14.60;99.90;;;;;;5092784;28;20179;-68
2022/04/23 12:05:28;;;;;;;6.50;3.50;;;14.50;99.90;;;;;;5093050;28;20188;-68
2022/04/23 12:07:56;;;;;;;8.07;3.67;;;14.50;99.90;;;;;;5093240;28;20573;-68
2022/04/23 12:10:33;;;;;;;7.20;3.97;;;14.50;99.90;;;;;;5092858;28;20548;-68
2022/04/23 12:13:08;;;;;;;5.47;3.03;;;14.50;99.90;;;;;;5093014;28;20190;-68
2022/04/23 12:15:44;;;;;;;9.53;4.30;;;14.40;99.90;;;;;;5093114;28;20683;-69
2022/04/23 12:18:15;;;;;;;7.10;3.50;;;14.40;99.90;;;;;;5093302;28;20269;-68
2022/04/23 12:20:42;;;;;;;6.93;3.20;;;14.40;99.90;;;;;;5092996;28;20196;-68
2022/04/23 12:23:10;;;;;;;5.90;3.10;;;14.40;99.90;;;;;;5091856;28;20186;-68
2022/04/23 12:25:38;;;;;;;7.90;3.13;;;14.40;99.90;;;;;;5093262;28;20179;-68
2022/04/23 12:42:10;;;;;;;4.80;2.87;;;14.20;99.90;;;;;;5093243;28;20547;-68
2022/04/23 12:44:42;;;;;;;7.63;3.10;;;14.20;99.90;;;;;;5092754;28;20179;-68
2022/04/23 12:47:15;;;;;;;5.10;2.93;;;14.20;99.90;;;;;;5093715;28;20171;-68
2022/04/23 12:49:50;;;;;;;15.80;3.23;;;14.10;99.90;;;;;;5093199;28;20619;-67
2022/04/23 12:52:34;;;;;;;8.17;3.67;;;14.10;99.90;;;;;;5092177;28;20274;-68
2022/04/23 12:55:25;;;;;;;8.43;4.10;;;14.10;99.90;;;;;;5092553;28;20187;-67
2022/04/23 12:57:54;;;;;;;10.87;5.70;;;14.10;99.90;;;;;;5092508;28;20187;-67
2022/04/23 13:00:22;;;;;;;9.27;5.43;;;14.10;99.90;;;;;;5095300;28;20592;-67
2022/04/23 13:03:10;;;;;;;10.63;6.73;;;14.10;99.90;;;;;;5096623;28;20190;-67
2022/04/23 13:05:37;;;;;;;11.80;7.07;;;14.00;99.90;;;;;;5096778;28;20182;-67
2022/04/23 13:10:50;;;;;;;7.77;4.30;;;14.10;99.90;;;;;;5097148;28;20204;-67
2022/04/23 13:13:17;;;;;;;6.67;3.87;;;14.10;99.90;;;;;;5096615;28;20625;-67
2022/04/23 13:15:45;;;;;;;9.37;4.77;;;14.10;99.90;;;;;;5096358;28;20592;-67
2022/04/23 13:18:14;;;;;;;15.13;6.70;;;14.10;99.90;;;;;;5096272;28;20278;-67
2022/04/23 13:20:41;;;;;;;12.53;5.53;;;14.10;99.90;;;;;;5096475;28;20184;-67
2022/04/23 13:23:08;;;;;;;6.17;3.80;;;14.30;99.90;;;;;;5096228;28;20182;-67
2022/04/23 13:25:36;;;;;;;5.33;3.20;;;14.30;99.90;;;;;;5096398;28;20659;-67
2022/04/23 13:28:03;;;;;;;6.67;3.50;;;14.40;99.90;;;;;;5095967;28;20185;-67
2022/04/23 13:30:30;;;;;;;5.60;3.37;;;14.50;99.90;;;;;;5096047;28;20175;-68
2022/04/23 13:32:57;;;;;;;6.90;3.17;;;14.50;99.90;;;;;;5095813;28;20228;-68
2022/04/23 13:35:25;;;;;;;3.90;2.30;;;14.40;99.90;;;;;;5096272;28;20234;-68
2022/04/23 13:37:52;;;;;;;4.13;2.73;;;14.40;99.90;;;;;;5093977;28;20175;-68